Time;durP1;ratioP1;P1;durP2;ratioP2;P2;SDS_P1;SDS_P2;PMS_P1;PMS_P2;Temp;Humidity;BMP_temperature;BMP_pressure;BME280_temperature;BME280_humidity;BME280_pressure;Samples;Min_cycle;Max_cycle;Signal;HPM_P1;HPM_P2
2023/01/31 00:01:17;;;;;;;;;;;;;;;;;;5051911;28;19913;-57
2023/01/31 00:03:43;;;;;;;;;;;;;;;;;;5053534;28;19943;-57
2023/01/31 00:06:09;;;;;;;;;;;;;;;;;;5046863;28;20348;-58
2023/01/31 00:08:35;;;;;;;;;;;;;;;;;;5052729;28;20015;-57
2023/01/31 00:11:01;;;;;;;;;;;;;;;;;;5043742;28;19913;-57
2023/01/31 00:13:27;;;;;;;;;;;;;;;;;;5031148;28;19924;-57
2023/01/31 00:15:53;;;;;;;;;;;;;;;;;;5068417;28;19925;-57
2023/01/31 00:18:18;;;;;;;;;;;;;;;;;;5072783;28;19926;-57
2023/01/31 00:20:44;;;;;;;;;;;;;;;;;;5052611;28;19909;-58
2023/01/31 00:23:10;;;;;;;;;;;;;;;;;;5051242;28;19920;-57
2023/01/31 00:25:36;;;;;;;;;;;;;;;;;;5052743;28;20706;-57
2023/01/31 00:28:02;;;;;;;;;;;;;;;;;;5056528;28;20004;-57
2023/01/31 00:30:28;;;;;;;;;;;;;;;;;;5072056;28;19909;-57
2023/01/31 00:32:54;;;;;;;;;;;;;;;;;;5052394;28;19916;-58
2023/01/31 00:35:20;;;;;;;;;;;;;;;;;;5043766;28;19964;-57
2023/01/31 00:37:45;;;;;;;;;;;;;;;;;;5049236;28;20003;-57
2023/01/31 00:40:11;;;;;;;;;;;;;;;;;;5052129;28;19999;-57
2023/01/31 00:42:37;;;;;;;;;;;;;;;;;;5050795;28;20291;-57
2023/01/31 00:45:03;;;;;;;;;;;;;;;;;;5040843;28;19999;-58
2023/01/31 00:47:29;;;;;;;;;;;;;;;;;;5052078;28;19909;-57
2023/01/31 00:49:55;;;;;;;;;;;;;;;;;;5046965;28;20423;-57
2023/01/31 00:52:21;;;;;;;;;;;;;;;;;;5048818;28;19975;-57
2023/01/31 00:54:47;;;;;;;;;;;;;;;;;;5028896;28;20541;-58
2023/01/31 00:57:13;;;;;;;;;;;;;;;;;;5041779;28;19917;-58
2023/01/31 00:59:39;;;;;;;;;;;;;;;;;;5035663;28;19917;-57
2023/01/31 01:02:04;;;;;;;;;;;;;;;;;;5043232;28;19959;-57
2023/01/31 01:04:30;;;;;;;;;;;;;;;;;;5055281;28;19989;-58
2023/01/31 01:06:56;;;;;;;;;;;;;;;;;;5050083;28;19948;-57
2023/01/31 01:09:22;;;;;;;;;;;;;;;;;;5041122;28;20294;-58
2023/01/31 01:11:48;;;;;;;;;;;;;;;;;;5047495;28;19928;-58
2023/01/31 01:14:14;;;;;;;;;;;;;;;;;;5038104;28;19949;-57
2023/01/31 01:16:40;;;;;;;;;;;;;;;;;;5061603;28;19916;-57
2023/01/31 01:19:06;;;;;;;;;;;;;;;;;;5048312;28;20624;-57
2023/01/31 01:21:37;;;;;;;;;;;;;;;;;;5050791;28;19951;-58
2023/01/31 01:24:03;;;;;;;;;;;;;;;;;;5049254;28;19944;-57
2023/01/31 01:26:29;;;;;;;;;;;;;;;;;;5052761;28;20309;-57
2023/01/31 01:28:55;;;;;;;;;;;;;;;;;;5055281;28;20011;-57
2023/01/31 01:31:21;;;;;;;;;;;;;;;;;;5052668;28;19974;-57
2023/01/31 01:33:47;;;;;;;;;;;;;;;;;;5060045;28;19916;-57
2023/01/31 01:36:14;;;;;;;;;;;;;;;;;;5059908;28;20019;-58
2023/01/31 01:38:40;;;;;;;;;;;;;;;;;;5056544;28;20368;-58
2023/01/31 01:41:06;;;;;;;;;;;;;;;;;;5053490;28;19976;-57
2023/01/31 01:43:32;;;;;;;;;;;;;;;;;;5051365;28;19913;-58
2023/01/31 01:45:58;;;;;;;;;;;;;;;;;;5036884;28;19913;-57
2023/01/31 01:48:24;;;;;;;;;;;;;;;;;;5048742;28;19956;-56
2023/01/31 01:50:50;;;;;;;;;;;;;;;;;;5052441;28;20458;-58
2023/01/31 01:53:16;;;;;;;;;;;;;;;;;;5055716;28;19921;-57
2023/01/31 01:55:42;;;;;;;;;;;;;;;;;;5051636;28;20062;-57
2023/01/31 01:58:08;;;;;;;;;;;;;;;;;;5051674;28;19966;-58
2023/01/31 02:00:33;;;;;;;;;;;;;;;;;;5053662;28;19913;-57
2023/01/31 02:02:59;;;;;;;;;;;;;;;;;;5055483;28;20272;-56
2023/01/31 02:05:25;;;;;;;;;;;;;;;;;;5053985;28;19917;-57
2023/01/31 02:07:51;;;;;;;;;;;;;;;;;;5048705;28;20036;-56
2023/01/31 02:10:17;;;;;;;;;;;;;;;;;;5043879;28;19913;-56
2023/01/31 02:12:43;;;;;;;;;;;;;;;;;;5053590;28;19966;-58
2023/01/31 02:15:09;;;;;;;;;;;;;;;;;;5051743;28;20042;-56
2023/01/31 02:17:35;;;;;;;;;;;;;;;;;;5043822;28;20360;-57
2023/01/31 02:20:01;;;;;;;;;;;;;;;;;;5053033;28;19963;-56
2023/01/31 02:22:27;;;;;;;;;;;;;;;;;;5042278;28;19988;-56
2023/01/31 02:24:53;;;;;;;;;;;;;;;;;;5048472;28;20020;-56
2023/01/31 02:27:19;;;;;;;;;;;;;;;;;;5036504;28;19920;-56
2023/01/31 02:29:45;;;;;;;;;;;;;;;;;;5053175;28;19948;-57
2023/01/31 02:32:11;;;;;;;;;;;;;;;;;;5054654;28;19947;-56
2023/01/31 02:34:36;;;;;;;;;;;;;;;;;;5054044;28;20309;-56
2023/01/31 02:37:02;;;;;;;;;;;;;;;;;;5051184;28;19965;-57
2023/01/31 02:39:28;;;;;;;;;;;;;;;;;;5056934;28;19952;-56
2023/01/31 02:41:54;;;;;;;;;;;;;;;;;;5053941;28;19915;-56
2023/01/31 02:47:04;;;;;;;;;;;;;;;;;;5054234;28;20042;-57
2023/01/31 02:49:33;;;;;;;;;;;;;;;;;;5052895;28;20394;-56
2023/01/31 02:52:17;;;;;;;;;;;;;;;;;;5053633;28;19908;-56
2023/01/31 02:57:35;;;;;;;;;;;;;;;;;;5021603;28;19921;-57
2023/01/31 03:00:02;;;;;;;;;;;;;;;;;;5033960;28;19915;-56
2023/01/31 03:02:28;;;;;;;;;;;;;;;;;;5033979;28;20000;-56
2023/01/31 03:04:54;;;;;;;;;;;;;;;;;;5060509;28;20708;-57
2023/01/31 03:07:25;;;;;;;;;;;;;;;;;;5064171;28;20004;-56
2023/01/31 03:09:51;;;;;;;;;;;;;;;;;;5043416;28;19991;-56
2023/01/31 03:12:17;;;;;;;;;;;;;;;;;;5051977;28;20371;-56
2023/01/31 03:14:43;;;;;;;;;;;;;;;;;;5053870;28;19913;-56
2023/01/31 03:19:54;;;;;;;;;;;;;;;;;;5051180;28;20016;-56
2023/01/31 03:22:22;;;;;;;;;;;;;;;;;;5045011;28;20015;-56
2023/01/31 03:24:48;;;;;;;;;;;;;;;;;;5033858;28;19910;-56
2023/01/31 03:27:14;;;;;;;;;;;;;;;;;;5033274;28;19910;-56
2023/01/31 03:29:40;;;;;;;;;;;;;;;;;;5040561;28;19920;-56
2023/01/31 03:32:07;;;;;;;;;;;;;;;;;;5050603;28;19937;-57
2023/01/31 03:34:33;;;;;;;;;;;;;;;;;;5050620;28;19917;-57
2023/01/31 03:36:59;;;;;;;;;;;;;;;;;;5056715;28;20009;-56
2023/01/31 03:39:25;;;;;;;;;;;;;;;;;;5053134;28;20361;-56
2023/01/31 03:41:50;;;;;;;;;;;;;;;;;;5052200;28;20007;-57
2023/01/31 03:44:16;;;;;;;;;;;;;;;;;;5053252;28;19909;-56
2023/01/31 03:46:42;;;;;;;;;;;;;;;;;;5053176;28;19908;-56
2023/01/31 03:49:08;;;;;;;;;;;;;;;;;;5048466;28;20439;-56
2023/01/31 03:51:34;;;;;;;;;;;;;;;;;;5040988;28;19913;-57
2023/01/31 03:54:00;;;;;;;;;;;;;;;;;;5052293;28;19968;-57
2023/01/31 03:56:26;;;;;;;;;;;;;;;;;;5052612;28;19988;-56
2023/01/31 03:58:52;;;;;;;;;;;;;;;;;;5051925;28;20043;-56
2023/01/31 04:01:18;;;;;;;;;;;;;;;;;;5052441;28;19993;-57
2023/01/31 04:03:44;;;;;;;;;;;;;;;;;;5051253;28;19909;-57
2023/01/31 04:06:10;;;;;;;;;;;;;;;;;;5051926;28;20302;-56
2023/01/31 04:08:36;;;;;;;;;;;;;;;;;;5053729;28;19952;-56
2023/01/31 04:11:02;;;;;;;;;;;;;;;;;;5051663;28;20360;-56
2023/01/31 04:13:28;;;;;;;;;;;;;;;;;;5052621;28;19962;-57
2023/01/31 04:15:54;;;;;;;;;;;;;;;;;;5052568;28;20280;-57
2023/01/31 04:18:19;;;;;;;;;;;;;;;;;;5044711;28;19953;-57
2023/01/31 04:20:45;;;;;;;;;;;;;;;;;;5036729;28;19948;-56
2023/01/31 04:23:11;;;;;;;;;;;;;;;;;;5052796;28;19913;-56
2023/01/31 04:25:37;;;;;;;;;;;;;;;;;;5051376;28;19920;-56
2023/01/31 04:28:03;;;;;;;;;;;;;;;;;;5052818;28;19909;-55
2023/01/31 04:30:29;;;;;;;;;;;;;;;;;;5048336;28;19920;-56
2023/01/31 04:32:55;;;;;;;;;;;;;;;;;;5048516;28;20328;-57
2023/01/31 04:35:21;;;;;;;;;;;;;;;;;;5036912;28;19924;-57
2023/01/31 04:37:47;;;;;;;;;;;;;;;;;;5047390;28;19912;-56
2023/01/31 04:40:13;;;;;;;;;;;;;;;;;;5052061;28;19963;-56
2023/01/31 04:42:39;;;;;;;;;;;;;;;;;;5052380;28;19951;-56
2023/01/31 04:45:05;;;;;;;;;;;;;;;;;;5052137;28;20383;-56
2023/01/31 04:47:30;;;;;;;;;;;;;;;;;;5048062;28;19944;-56
2023/01/31 04:49:56;;;;;;;;;;;;;;;;;;5051073;28;20007;-56
2023/01/31 04:52:23;;;;;;;;;;;;;;;;;;5063339;28;21407;-56
2023/01/31 04:54:49;;;;;;;;;;;;;;;;;;5048589;28;19913;-56
2023/01/31 04:57:15;;;;;;;;;;;;;;;;;;5050922;28;20017;-56
2023/01/31 04:59:41;;;;;;;;;;;;;;;;;;5051339;28;19913;-57
2023/01/31 05:02:07;;;;;;;;;;;;;;;;;;5044915;28;19917;-57
2023/01/31 05:04:33;;;;;;;;;;;;;;;;;;5040376;28;19956;-56
2023/01/31 05:06:59;;;;;;;;;;;;;;;;;;5063785;28;20660;-57
2023/01/31 05:09:25;;;;;;;;;;;;;;;;;;5062586;28;19917;-58
2023/01/31 05:11:51;;;;;;;;;;;;;;;;;;5052988;28;19913;-56
2023/01/31 05:14:17;;;;;;;;;;;;;;;;;;5055587;28;19944;-55
2023/01/31 05:16:46;;;;;;;;;;;;;;;;;;5045899;28;19913;-58
2023/01/31 05:19:11;;;;;;;;;;;;;;;;;;5043619;28;19916;-56
2023/01/31 05:21:53;;;;;;;;;;;;;;;;;;5053435;28;19951;-56
2023/01/31 05:24:19;;;;;;;;;;;;;;;;;;5043522;28;19916;-57
2023/01/31 05:26:46;;;;;;;;;;;;;;;;;;5054084;28;19912;-57
2023/01/31 05:29:12;;;;;;;;;;;;;;;;;;5053876;28;19917;-56
2023/01/31 05:31:38;;;;;;;;;;;;;;;;;;5052983;28;20275;-56
2023/01/31 05:34:04;;;;;;;;;;;;;;;;;;5055037;28;19909;-56
2023/01/31 05:36:30;;;;;;;;;;;;;;;;;;5052428;28;19913;-57
2023/01/31 05:38:56;;;;;;;;;;;;;;;;;;5052182;28;19948;-57
2023/01/31 05:41:22;;;;;;;;;;;;;;;;;;5052512;28;19909;-57
2023/01/31 05:43:47;;;;;;;;;;;;;;;;;;5041996;28;19956;-56
2023/01/31 05:46:13;;;;;;;;;;;;;;;;;;5050312;28;19916;-56
2023/01/31 05:48:39;;;;;;;;;;;;;;;;;;5051667;28;19920;-57
2023/01/31 05:51:05;;;;;;;;;;;;;;;;;;5053113;28;19919;-57
2023/01/31 05:53:31;;;;;;;;;;;;;;;;;;5058396;28;20416;-57
2023/01/31 05:55:57;;;;;;;;;;;;;;;;;;5052116;28;19920;-56
2023/01/31 05:58:23;;;;;;;;;;;;;;;;;;5053895;28;20046;-58
2023/01/31 06:00:49;;;;;;;;;;;;;;;;;;5045568;28;19913;-56
2023/01/31 06:03:15;;;;;;;;;;;;;;;;;;5054392;28;19913;-56
2023/01/31 06:05:41;;;;;;;;;;;;;;;;;;5057097;28;20433;-56
2023/01/31 06:08:06;;;;;;;;;;;;;;;;;;5053749;28;20291;-57
2023/01/31 06:10:32;;;;;;;;;;;;;;;;;;5056328;28;20030;-58
2023/01/31 06:12:58;;;;;;;;;;;;;;;;;;5051580;28;19912;-56
2023/01/31 06:15:24;;;;;;;;;;;;;;;;;;5049502;28;19971;-56
2023/01/31 06:17:50;;;;;;;;;;;;;;;;;;5054297;28;19957;-56
2023/01/31 06:20:16;;;;;;;;;;;;;;;;;;5051215;28;19921;-57
2023/01/31 06:22:42;;;;;;;;;;;;;;;;;;5054115;28;19912;-56
2023/01/31 06:25:08;;;;;;;;;;;;;;;;;;5055567;28;20291;-57
2023/01/31 06:27:33;;;;;;;;;;;;;;;;;;5047365;28;19971;-57
2023/01/31 06:29:59;;;;;;;;;;;;;;;;;;5047355;28;20024;-57
2023/01/31 06:32:25;;;;;;;;;;;;;;;;;;5053323;28;19917;-57
2023/01/31 06:34:51;;;;;;;;;;;;;;;;;;5053639;28;19951;-58
2023/01/31 06:37:17;;;;;;;;;;;;;;;;;;5053553;28;20353;-57
2023/01/31 06:39:43;;;;;;;;;;;;;;;;;;5064319;28;20425;-58
2023/01/31 06:42:09;;;;;;;;;;;;;;;;;;5051716;28;19913;-57
2023/01/31 06:44:36;;;;;;;;;;;;;;;;;;5052089;28;19935;-56
2023/01/31 06:47:02;;;;;;;;;;;;;;;;;;5054143;28;19919;-56
2023/01/31 06:49:28;;;;;;;;;;;;;;;;;;5054686;28;20004;-56
2023/01/31 06:51:54;;;;;;;;;;;;;;;;;;5050933;28;20286;-56
2023/01/31 06:54:20;;;;;;;;;;;;;;;;;;5051466;28;19913;-56
2023/01/31 06:56:46;;;;;;;;;;;;;;;;;;5055182;28;19952;-56
2023/01/31 06:59:12;;;;;;;;;;;;;;;;;;5053339;28;19931;-56
2023/01/31 07:01:38;;;;;;;;;;;;;;;;;;5045978;28;19999;-56
2023/01/31 07:04:04;;;;;;;;;;;;;;;;;;5045969;28;19920;-57
2023/01/31 07:06:29;;;;;;;;;;;;;;;;;;5050833;28;19959;-57
2023/01/31 07:08:55;;;;;;;;;;;;;;;;;;5043505;28;19960;-57
2023/01/31 07:11:21;;;;;;;;;;;;;;;;;;5048849;28;20332;-56
2023/01/31 07:13:49;;;;;;;;;;;;;;;;;;5046787;28;19921;-56
2023/01/31 07:16:15;;;;;;;;;;;;;;;;;;5048918;28;19956;-56
2023/01/31 07:18:41;;;;;;;;;;;;;;;;;;5032933;28;19951;-56
2023/01/31 07:21:07;;;;;;;;;;;;;;;;;;5050776;28;19917;-56
2023/01/31 07:23:33;;;;;;;;;;;;;;;;;;5044657;28;19998;-57
2023/01/31 07:26:01;;;;;;;;;;;;;;;;;;5049150;28;19952;-56
2023/01/31 07:28:26;;;;;;;;;;;;;;;;;;5044460;28;19921;-57
2023/01/31 07:30:52;;;;;;;;;;;;;;;;;;5049376;28;19951;-56
2023/01/31 07:33:18;;;;;;;;;;;;;;;;;;5056135;28;20435;-56
2023/01/31 07:35:44;;;;;;;;;;;;;;;;;;5052095;28;19916;-56
2023/01/31 07:38:10;;;;;;;;;;;;;;;;;;5049338;28;21094;-57
2023/01/31 07:40:36;;;;;;;;;;;;;;;;;;5047495;28;19916;-56
2023/01/31 07:43:02;;;;;;;;;;;;;;;;;;5052383;28;19978;-57
2023/01/31 07:45:28;;;;;;;;;;;;;;;;;;5030885;28;20341;-58
2023/01/31 07:47:54;;;;;;;;;;;;;;;;;;5034983;28;19917;-56
2023/01/31 07:50:20;;;;;;;;;;;;;;;;;;5051032;28;20726;-56
2023/01/31 07:52:47;;;;;;;;;;;;;;;;;;5043350;28;19924;-56
2023/01/31 07:55:13;;;;;;;;;;;;;;;;;;5042361;28;19913;-56
2023/01/31 07:57:39;;;;;;;;;;;;;;;;;;5050459;28;19909;-57
2023/01/31 08:03:31;;;;;;;;;;;;;;;;;;5050378;28;20364;-56
2023/01/31 08:05:36;;;;;;;;;;;;;;;;;;5043606;28;19920;-56
2023/01/31 08:08:09;;;;;;;;;;;;;;;;;;5050586;28;19976;-56
2023/01/31 08:10:35;;;;;;;;;;;;;;;;;;5049697;28;19928;-56
2023/01/31 08:13:00;;;;;;;;;;;;;;;;;;5048752;28;19921;-57
2023/01/31 08:15:26;;;;;;;;;;;;;;;;;;5049992;28;20005;-57
2023/01/31 08:17:52;;;;;;;;;;;;;;;;;;5056132;28;19921;-56
2023/01/31 08:20:18;;;;;;;;;;;;;;;;;;5047443;28;20379;-56
2023/01/31 08:22:44;;;;;;;;;;;;;;;;;;5038455;28;19969;-57
2023/01/31 08:25:10;;;;;;;;;;;;;;;;;;5059374;28;20287;-56
2023/01/31 08:27:36;;;;;;;;;;;;;;;;;;5053060;28;19923;-56
2023/01/31 08:30:02;;;;;;;;;;;;;;;;;;5050751;28;19913;-57
2023/01/31 08:32:28;;;;;;;;;;;;;;;;;;5044935;28;19999;-56
2023/01/31 08:34:53;;;;;;;;;;;;;;;;;;5048860;28;19927;-56
2023/01/31 08:37:19;;;;;;;;;;;;;;;;;;5050353;28;19972;-56
2023/01/31 08:39:47;;;;;;;;;;;;;;;;;;5050655;28;19927;-56
2023/01/31 08:42:13;;;;;;;;;;;;;;;;;;5047380;28;20576;-56
2023/01/31 08:44:39;;;;;;;;;;;;;;;;;;5050824;28;19917;-57
2023/01/31 08:47:05;;;;;;;;;;;;;;;;;;5048408;28;19921;-56
2023/01/31 08:49:35;;;;;;;;;;;;;;;;;;5052189;28;20037;-57
2023/01/31 08:52:01;;;;;;;;;;;;;;;;;;5051272;28;19996;-57
2023/01/31 08:54:26;;;;;;;;;;;;;;;;;;5050590;28;20340;-57
2023/01/31 08:56:52;;;;;;;;;;;;;;;;;;5047333;28;19971;-56
2023/01/31 08:59:18;;;;;;;;;;;;;;;;;;5048104;28;19978;-57
2023/01/31 09:01:45;;;;;;;;;;;;;;;;;;5043664;28;19913;-56
2023/01/31 09:04:11;;;;;;;;;;;;;;;;;;5044844;28;19917;-57
2023/01/31 09:06:37;;;;;;;;;;;;;;;;;;5042705;28;20014;-57
2023/01/31 09:09:03;;;;;;;;;;;;;;;;;;5043704;28;19913;-58
2023/01/31 09:11:29;;;;;;;;;;;;;;;;;;5046193;28;19923;-58
2023/01/31 09:13:55;;;;;;;;;;;;;;;;;;5049425;28;20387;-58
2023/01/31 09:16:21;;;;;;;;;;;;;;;;;;5050566;28;19932;-59
2023/01/31 09:18:46;;;;;;;;;;;;;;;;;;5039717;28;19960;-56
2023/01/31 09:21:13;;;;;;;;;;;;;;;;;;5047056;28;19994;-57
2023/01/31 09:23:39;;;;;;;;;;;;;;;;;;5039674;28;20016;-56
2023/01/31 09:26:04;;;;;;;;;;;;;;;;;;5050559;28;20043;-57
2023/01/31 09:28:30;;;;;;;;;;;;;;;;;;5041297;28;19948;-57
2023/01/31 09:30:56;;;;;;;;;;;;;;;;;;5041917;28;20431;-56
2023/01/31 09:33:22;;;;;;;;;;;;;;;;;;5046754;28;19909;-58
2023/01/31 09:35:48;;;;;;;;;;;;;;;;;;5039610;28;19924;-57
2023/01/31 09:38:14;;;;;;;;;;;;;;;;;;5047824;28;20018;-56
2023/01/31 09:40:40;;;;;;;;;;;;;;;;;;5048071;28;20264;-57
2023/01/31 09:43:06;;;;;;;;;;;;;;;;;;5050130;28;19916;-57
2023/01/31 09:45:32;;;;;;;;;;;;;;;;;;5047140;28;20006;-57
2023/01/31 09:47:57;;;;;;;;;;;;;;;;;;5046944;28;19921;-57
2023/01/31 09:50:23;;;;;;;;;;;;;;;;;;5052793;28;19913;-58
2023/01/31 09:52:49;;;;;;;;;;;;;;;;;;5045566;28;19959;-57
2023/01/31 09:55:15;;;;;;;;;;;;;;;;;;5046970;28;19963;-57
2023/01/31 09:57:41;;;;;;;;;;;;;;;;;;5044634;28;19982;-57
2023/01/31 10:00:07;;;;;;;;;;;;;;;;;;5055383;28;19938;-57
2023/01/31 10:02:33;;;;;;;;;;;;;;;;;;5054381;28;19909;-58
2023/01/31 10:04:59;;;;;;;;;;;;;;;;;;5053187;28;19951;-57
2023/01/31 10:07:25;;;;;;;;;;;;;;;;;;5049759;28;20410;-57
2023/01/31 10:09:51;;;;;;;;;;;;;;;;;;5048320;28;19919;-57
2023/01/31 10:12:16;;;;;;;;;;;;;;;;;;5051037;28;19917;-57
2023/01/31 10:14:42;;;;;;;;;;;;;;;;;;5047966;28;19921;-56
2023/01/31 10:17:08;;;;;;;;;;;;;;;;;;5051815;28;19959;-58
2023/01/31 10:19:34;;;;;;;;;;;;;;;;;;5054025;28;19955;-58
2023/01/31 10:22:00;;;;;;;;;;;;;;;;;;5050979;28;20355;-58
2023/01/31 10:24:27;;;;;;;;;;;;;;;;;;5049146;28;19920;-58
2023/01/31 10:26:53;;;;;;;;;;;;;;;;;;5048245;28;19939;-58
2023/01/31 10:29:19;;;;;;;;;;;;;;;;;;5047711;28;20415;-58
2023/01/31 10:31:45;;;;;;;;;;;;;;;;;;5054827;28;19919;-57
2023/01/31 10:34:11;;;;;;;;;;;;;;;;;;5048525;28;19959;-58
2023/01/31 10:36:37;;;;;;;;;;;;;;;;;;5051822;28;20286;-57
2023/01/31 10:39:03;;;;;;;;;;;;;;;;;;5052027;28;19921;-58
2023/01/31 10:41:29;;;;;;;;;;;;;;;;;;5042773;28;19957;-57
2023/01/31 10:43:54;;;;;;;;;;;;;;;;;;5038887;28;19983;-57
2023/01/31 10:46:20;;;;;;;;;;;;;;;;;;5050547;28;19920;-57
2023/01/31 10:48:46;;;;;;;;;;;;;;;;;;5048636;28;19964;-58
2023/01/31 10:51:12;;;;;;;;;;;;;;;;;;5043658;28;19971;-57
2023/01/31 10:53:38;;;;;;;;;;;;;;;;;;5044842;28;19928;-58
2023/01/31 10:56:04;;;;;;;;;;;;;;;;;;5045676;28;20372;-56
2023/01/31 10:58:30;;;;;;;;;;;;;;;;;;5046298;28;19913;-56
2023/01/31 11:00:56;;;;;;;;;;;;;;;;;;5049187;28;20045;-58
2023/01/31 11:03:22;;;;;;;;;;;;;;;;;;5045335;28;19912;-57
2023/01/31 11:05:48;;;;;;;;;;;;;;;;;;5045295;28;20003;-57
2023/01/31 11:08:14;;;;;;;;;;;;;;;;;;5048978;28;19937;-57
2023/01/31 11:10:40;;;;;;;;;;;;;;;;;;5033766;28;19971;-58
2023/01/31 11:13:08;;;;;;;;;;;;;;;;;;5050190;28;20402;-57
2023/01/31 11:15:34;;;;;;;;;;;;;;;;;;5042912;28;19913;-58
2023/01/31 11:18:00;;;;;;;;;;;;;;;;;;5042830;28;20388;-58
2023/01/31 11:20:26;;;;;;;;;;;;;;;;;;5042706;28;19939;-57
2023/01/31 11:22:52;;;;;;;;;;;;;;;;;;5042997;28;19913;-57
2023/01/31 11:25:18;;;;;;;;;;;;;;;;;;5038114;28;19944;-57
2023/01/31 11:27:44;;;;;;;;;;;;;;;;;;5046109;28;19915;-57
2023/01/31 11:30:09;;;;;;;;;;;;;;;;;;5032053;28;20364;-57
2023/01/31 11:32:35;;;;;;;;;;;;;;;;;;5051255;28;19919;-57
2023/01/31 11:35:04;;;;;;;;;;;;;;;;;;5037300;28;20432;-57
2023/01/31 11:37:30;;;;;;;;;;;;;;;;;;5042243;28;19917;-55
2023/01/31 11:39:56;;;;;;;;;;;;;;;;;;5040293;28;20332;-59
2023/01/31 11:42:22;;;;;;;;;;;;;;;;;;5040873;28;19913;-57
2023/01/31 11:44:48;;;;;;;;;;;;;;;;;;5040921;28;20261;-57
2023/01/31 11:47:14;;;;;;;;;;;;;;;;;;5048813;28;20006;-57
2023/01/31 11:49:40;;;;;;;;;;;;;;;;;;5044884;28;19916;-58
2023/01/31 11:52:06;;;;;;;;;;;;;;;;;;5047740;28;19924;-57
2023/01/31 11:54:32;;;;;;;;;;;;;;;;;;5039141;28;19955;-58
2023/01/31 11:56:58;;;;;;;;;;;;;;;;;;5047992;28;19925;-58
2023/01/31 11:59:24;;;;;;;;;;;;;;;;;;5047266;28;19947;-58
2023/01/31 12:01:50;;;;;;;;;;;;;;;;;;5047562;28;20395;-57
2023/01/31 12:04:16;;;;;;;;;;;;;;;;;;5051287;28;19952;-58
2023/01/31 12:06:42;;;;;;;;;;;;;;;;;;5047511;28;20912;-57
2023/01/31 12:09:08;;;;;;;;;;;;;;;;;;5047923;28;19952;-57
2023/01/31 12:11:34;;;;;;;;;;;;;;;;;;5041271;28;20325;-57
2023/01/31 12:13:59;;;;;;;;;;;;;;;;;;5041715;28;19952;-56
2023/01/31 12:16:25;;;;;;;;;;;;;;;;;;5050093;28;19983;-56
2023/01/31 12:18:51;;;;;;;;;;;;;;;;;;5061308;28;19917;-56
2023/01/31 12:21:17;;;;;;;;;;;;;;;;;;5044151;28;19971;-57
2023/01/31 12:23:43;;;;;;;;;;;;;;;;;;5044719;28;19913;-57
2023/01/31 12:26:09;;;;;;;;;;;;;;;;;;5048140;28;19913;-56
2023/01/31 12:28:35;;;;;;;;;;;;;;;;;;5043774;28;19975;-56
2023/01/31 12:31:01;;;;;;;;;;;;;;;;;;5035524;28;19939;-57
2023/01/31 12:33:27;;;;;;;;;;;;;;;;;;5051544;28;19917;-56
2023/01/31 12:35:53;;;;;;;;;;;;;;;;;;5061545;28;20017;-57
2023/01/31 12:38:18;;;;;;;;;;;;;;;;;;5049350;28;19920;-56
2023/01/31 12:40:44;;;;;;;;;;;;;;;;;;5038583;28;19920;-57
2023/01/31 12:43:10;;;;;;;;;;;;;;;;;;5037515;28;19956;-57
2023/01/31 12:45:36;;;;;;;;;;;;;;;;;;5041759;28;19929;-55
2023/01/31 12:48:02;;;;;;;;;;;;;;;;;;5049990;28;19919;-55
2023/01/31 12:50:28;;;;;;;;;;;;;;;;;;5041772;28;20494;-56
2023/01/31 12:52:54;;;;;;;;;;;;;;;;;;5050872;28;19916;-56
2023/01/31 12:55:20;;;;;;;;;;;;;;;;;;5048712;28;19956;-56
2023/01/31 12:57:46;;;;;;;;;;;;;;;;;;5030521;28;19955;-53
2023/01/31 13:00:12;;;;;;;;;;;;;;;;;;5044875;28;19952;-55
2023/01/31 13:02:38;;;;;;;;;;;;;;;;;;5042716;28;19983;-55
2023/01/31 13:05:04;;;;;;;;;;;;;;;;;;5046459;28;19913;-56
2023/01/31 13:07:30;;;;;;;;;;;;;;;;;;5031934;28;19960;-55
2023/01/31 13:09:56;;;;;;;;;;;;;;;;;;5044777;28;19959;-54
2023/01/31 13:12:24;;;;;;;;;;;;;;;;;;5050962;28;19988;-55
2023/01/31 13:14:50;;;;;;;;;;;;;;;;;;5045471;28;19921;-58
2023/01/31 13:17:16;;;;;;;;;;;;;;;;;;5048380;28;19921;-56
2023/01/31 13:19:41;;;;;;;;;;;;;;;;;;5048205;28;19943;-55
2023/01/31 13:22:07;;;;;;;;;;;;;;;;;;5039532;28;19908;-55
2023/01/31 13:24:33;;;;;;;;;;;;;;;;;;5043996;28;19921;-56
2023/01/31 13:27:01;;;;;;;;;;;;;;;;;;5042734;28;20006;-57
2023/01/31 13:29:26;;;;;;;;;;;;;;;;;;5039998;28;19920;-57
2023/01/31 13:31:52;;;;;;;;;;;;;;;;;;5042958;28;19912;-55
2023/01/31 13:34:18;;;;;;;;;;;;;;;;;;5043390;28;19913;-57
2023/01/31 13:36:44;;;;;;;;;;;;;;;;;;5048718;28;19924;-56
2023/01/31 13:39:10;;;;;;;;;;;;;;;;;;5045690;28;20782;-57
2023/01/31 13:41:38;;;;;;;;;;;;;;;;;;5052531;28;19917;-55
2023/01/31 13:44:04;;;;;;;;;;;;;;;;;;5051265;28;19917;-57
2023/01/31 13:46:30;;;;;;;;;;;;;;;;;;5046550;28;20008;-55
2023/01/31 13:48:56;;;;;;;;;;;;;;;;;;5044412;28;19955;-55
2023/01/31 13:51:22;;;;;;;;;;;;;;;;;;5050583;28;19913;-55
2023/01/31 13:53:48;;;;;;;;;;;;;;;;;;5051255;28;20027;-55
2023/01/31 13:56:13;;;;;;;;;;;;;;;;;;5052632;28;19960;-58
2023/01/31 13:58:41;;;;;;;;;;;;;;;;;;5058031;28;19917;-55
2023/01/31 14:01:07;;;;;;;;;;;;;;;;;;5047976;28;19922;-54
2023/01/31 14:03:33;;;;;;;;;;;;;;;;;;5038206;28;20342;-56
2023/01/31 14:05:59;;;;;;;;;;;;;;;;;;5057655;28;19913;-55
2023/01/31 14:08:25;;;;;;;;;;;;;;;;;;5052896;28;19921;-56
2023/01/31 14:10:51;;;;;;;;;;;;;;;;;;5053267;28;19948;-56
2023/01/31 14:13:16;;;;;;;;;;;;;;;;;;5049759;28;19927;-56
2023/01/31 14:15:42;;;;;;;;;;;;;;;;;;5055613;28;19913;-55
2023/01/31 14:18:08;;;;;;;;;;;;;;;;;;5050125;28;20403;-56
2023/01/31 14:20:34;;;;;;;;;;;;;;;;;;5048214;28;19962;-55
2023/01/31 14:23:00;;;;;;;;;;;;;;;;;;5049310;28;20287;-54
2023/01/31 14:25:26;;;;;;;;;;;;;;;;;;5051427;28;20361;-56
2023/01/31 14:27:52;;;;;;;;;;;;;;;;;;5049984;28;19917;-54
2023/01/31 14:30:18;;;;;;;;;;;;;;;;;;5042393;28;19977;-55
2023/01/31 14:32:43;;;;;;;;;;;;;;;;;;5040404;28;19913;-51
2023/01/31 14:35:09;;;;;;;;;;;;;;;;;;5051114;28;19916;-52
2023/01/31 14:37:35;;;;;;;;;;;;;;;;;;5046936;28;19956;-54
2023/01/31 14:40:01;;;;;;;;;;;;;;;;;;5048125;28;19913;-55
2023/01/31 14:42:27;;;;;;;;;;;;;;;;;;5049229;28;20725;-52
2023/01/31 14:44:53;;;;;;;;;;;;;;;;;;5051331;28;19959;-55
2023/01/31 14:47:19;;;;;;;;;;;;;;;;;;5047948;28;19963;-54
2023/01/31 14:49:45;;;;;;;;;;;;;;;;;;5049121;28;19956;-53
2023/01/31 14:52:11;;;;;;;;;;;;;;;;;;5039963;28;19919;-53
2023/01/31 14:54:37;;;;;;;;;;;;;;;;;;5042720;28;19917;-52
2023/01/31 14:57:03;;;;;;;;;;;;;;;;;;5048751;28;19960;-53
2023/01/31 14:59:28;;;;;;;;;;;;;;;;;;5051328;28;20009;-53
2023/01/31 15:01:54;;;;;;;;;;;;;;;;;;5048998;28;19944;-55
2023/01/31 15:04:21;;;;;;;;;;;;;;;;;;5050845;28;19944;-55
2023/01/31 15:06:46;;;;;;;;;;;;;;;;;;5042442;28;20380;-52
2023/01/31 15:09:12;;;;;;;;;;;;;;;;;;5042383;28;19923;-54
2023/01/31 15:11:39;;;;;;;;;;;;;;;;;;5045564;28;19917;-56
2023/01/31 15:14:05;;;;;;;;;;;;;;;;;;5048086;28;19917;-53
2023/01/31 15:16:31;;;;;;;;;;;;;;;;;;5043880;28;19978;-53
2023/01/31 15:18:57;;;;;;;;;;;;;;;;;;5043799;28;19931;-55
2023/01/31 15:21:23;;;;;;;;;;;;;;;;;;5045799;28;19917;-52
2023/01/31 15:23:49;;;;;;;;;;;;;;;;;;5044665;28;19948;-54
2023/01/31 15:26:15;;;;;;;;;;;;;;;;;;5063775;28;20302;-55
2023/01/31 15:28:41;;;;;;;;;;;;;;;;;;5044206;28;19919;-52
2023/01/31 15:31:07;;;;;;;;;;;;;;;;;;5046932;28;20113;-55
2023/01/31 15:33:33;;;;;;;;;;;;;;;;;;5039847;28;20012;-54
2023/01/31 15:35:58;;;;;;;;;;;;;;;;;;5043399;28;19924;-54
2023/01/31 15:38:24;;;;;;;;;;;;;;;;;;5040071;28;19955;-54
2023/01/31 15:40:50;;;;;;;;;;;;;;;;;;5042125;28;20376;-54
2023/01/31 15:43:16;;;;;;;;;;;;;;;;;;5055014;28;19989;-55
2023/01/31 15:45:42;;;;;;;;;;;;;;;;;;5039888;28;19927;-53
2023/01/31 15:48:08;;;;;;;;;;;;;;;;;;5043620;28;20000;-53
2023/01/31 15:50:34;;;;;;;;;;;;;;;;;;5040079;28;19957;-57
2023/01/31 15:53:00;;;;;;;;;;;;;;;;;;5043153;28;20338;-53
2023/01/31 15:55:26;;;;;;;;;;;;;;;;;;5038546;28;20016;-53
2023/01/31 15:57:55;;;;;;;;;;;;;;;;;;5039269;28;19921;-51
2023/01/31 16:00:21;;;;;;;;;;;;;;;;;;5041883;28;20379;-54
2023/01/31 16:02:47;;;;;;;;;;;;;;;;;;5040111;28;19952;-54
2023/01/31 16:05:13;;;;;;;;;;;;;;;;;;5034047;28;19924;-57
2023/01/31 16:07:39;;;;;;;;;;;;;;;;;;5037122;28;19948;-55
2023/01/31 16:10:05;;;;;;;;;;;;;;;;;;5045337;28;20015;-52
2023/01/31 16:12:31;;;;;;;;;;;;;;;;;;5043337;28;20011;-51
2023/01/31 16:14:58;;;;;;;;;;;;;;;;;;5039679;28;19935;-51
2023/01/31 16:17:24;;;;;;;;;;;;;;;;;;5043520;28;19917;-54
2023/01/31 16:19:50;;;;;;;;;;;;;;;;;;5039805;28;19919;-57
2023/01/31 16:22:16;;;;;;;;;;;;;;;;;;5040462;28;20719;-54
2023/01/31 16:24:42;;;;;;;;;;;;;;;;;;5044338;28;19948;-56
2023/01/31 16:27:08;;;;;;;;;;;;;;;;;;5043945;28;20376;-54
2023/01/31 16:29:34;;;;;;;;;;;;;;;;;;5041555;28;19928;-54
2023/01/31 16:31:59;;;;;;;;;;;;;;;;;;5044799;28;20352;-53
2023/01/31 16:34:25;;;;;;;;;;;;;;;;;;5041058;28;19921;-54
2023/01/31 16:36:52;;;;;;;;;;;;;;;;;;5049075;28;19985;-52
2023/01/31 16:39:18;;;;;;;;;;;;;;;;;;5045728;28;19912;-53
2023/01/31 16:41:44;;;;;;;;;;;;;;;;;;5041143;28;20343;-53
2023/01/31 16:44:10;;;;;;;;;;;;;;;;;;5048410;28;20015;-53
2023/01/31 16:46:36;;;;;;;;;;;;;;;;;;5046611;28;20757;-54
2023/01/31 16:49:02;;;;;;;;;;;;;;;;;;5048037;28;19912;-55